Station: KADINA AWS

  Atmospheric Gas Attenuation - ITU Rec 676-11   --------------- db/100km ---------------
Date Time Temp RH % AH g/m3 Dew Point Wind Direction Speed kph Gust kph Barometer mB Rainfall Since 9am 24GHz 47GHz 76GHz 122GHz 134GHz 241GHz
16 18:10 22.6 38 7.63 7.6 24 30 1018.2 0 17.1 22.3 32.5 84.9 77.2 265.1
16 18:00 22.6 36 7.23 6.8 28 41 1018.1 0 16.3 21.7 31.1 81.3 72.6 249.2
16 17:50 22.8 35 7.11 6.6 32 35 1018.1 0 16.0 21.5 30.6 80.0 71.1 243.9
16 17:40 22.8 35 7.11 6.6 28 32 1018.1 0 16.0 21.5 30.6 80.0 71.1 243.9
16 17:30 22.8 35 7.11 6.6 30 43 1018 0 16.0 21.5 30.6 80.0 71.1 243.9
16 17:20 22.7 35 7.07 6.5 35 43 1018.2 0 16.0 21.5 30.5 79.7 70.8 242.7
16 17:10 22.8 35 7.11 6.6 26 30 1018.3 0 16.0 21.5 30.6 80.0 71.1 243.9
16 17:00 23.1 34 7.03 6.4 32 46 1018.1 0 15.9 21.3 30.2 79.0 70.0 239.9
16 16:50 23.5 33 6.98 6.3 33 41 1018.3 0 15.8 21.2 29.9 78.2 69.1 236.9
16 16:40 23.3 33 6.9 6.1 30 39 1018.4 0 15.6 21.1 29.8 77.7 68.4 234.4
16 16:30 23.5 32 6.77 5.9 28 41 1018.3 0 15.3 20.9 29.2 76.3 66.8 228.8
16 16:20 22.9 42 8.58 9.3 32 43 1018 0 19.1 23.5 35.7 93.5 87.8 302.4
16 16:10 23.1 34 7.03 6.4 28 32 1018.6 0 15.9 21.4 30.3 79.0 70.0 240.0
16 16:00 23.1 38 7.85 8 32 59 1018.6 0 17.6 22.5 33.1 86.5 79.2 272.3
16 15:50 22.8 39 7.92 8.1 26 28 1019 0 17.7 22.7 33.4 87.5 80.3 276.2
16 15:40 22.4 39 7.74 7.8 20 26 1018.9 0 17.4 22.5 33.0 86.2 78.6 270.3
16 15:30 23.1 34 7.03 6.4 26 46 1019 0 15.9 21.4 30.3 79.1 70.0 240.1
16 15:20 22.7 42 8.49 9.1 30 35 1019.3 0 18.9 23.5 35.5 93.0 87.0 299.8
16 15:10 23 38 7.81 7.9 39 44 1019.1 0 17.5 22.5 33.0 86.3 78.9 271.1
16 15:00 23.6 36 7.66 7.7 32 43 1019.1 0 17.2 22.1 32.2 84.3 76.6 263.2
16 14:50 22.5 37 7.39 7.1 35 43 1019.3 0 16.6 22.0 31.7 82.9 74.6 256.1
16 14:40 22.3 40 7.9 8.1 33 39 1019.4 0 17.7 22.8 33.6 87.9 80.6 277.2
16 14:30 22.8 36 7.31 7 35 72 1019.1 0 16.5 21.8 31.3 81.9 73.4 252.0
16 14:20 21 42 7.69 7.6 41 50 1019.6 0 17.3 22.8 33.4 87.3 79.5 273.1
16 14:10 22.1 39 7.61 7.5 33 35 1019.7 0 17.1 22.4 32.7 85.4 77.5 266.2
16 14:00 22.8 35 7.11 6.6 19 37 1019.9 0 16.0 21.6 30.7 80.2 71.2 244.3
16 13:50 21.2 39 7.23 6.7 28 35 1019.8 0 16.4 22.1 31.7 82.8 74.0 253.9
16 13:40 22.2 34 6.67 5.6 30 37 1019.9 0 15.2 21.1 29.4 76.8 66.9 228.9
16 13:30 21.9 40 7.72 7.7 32 56 1020 0 17.4 22.6 33.1 86.7 79.0 271.4
16 13:20 22.1 33 6.44 5.1 17 22 1020.3 0 14.7 20.8 28.7 74.8 64.4 220.3
16 13:10 22.7 36 7.27 6.9 22 32 1020.3 0 16.4 21.8 31.3 81.7 73.1 250.9
16 13:00 22 34 6.6 5.4 17 30 1020.2 0 15.0 21.1 29.3 76.4 66.3 226.8
16 12:50 22.5 33 6.59 5.4 28 32 1020.3 0 15.0 20.9 29.1 75.8 65.8 225.0
16 12:40 21.4 34 6.37 4.9 19 26 1020.4 0 14.6 20.9 28.7 74.9 64.2 219.5
16 12:30 21.6 36 6.83 5.9 22 41 1020.4 0 15.5 21.5 30.2 78.8 69.2 236.9
16 12:20 21.2 34 6.3 4.7 19 26 1020.5 0 14.4 20.8 28.6 74.4 63.6 217.3
16 12:10 21.5 33 6.22 4.6 24 26 1020.5 0 14.2 20.7 28.2 73.4 62.5 213.5
16 12:00 21 34 6.23 4.6 28 46 1020.4 0 14.3 20.8 28.4 74.0 63.0 215.1
16 11:50 21.1 35 6.45 5.1 32 39 1020.5 0 14.7 21.1 29.1 75.9 65.4 223.4
16 11:40 20.3 37 6.51 5.1 15 20 1020.5 0 14.9 21.3 29.6 77.2 66.7 228.0
16 11:30 20.6 38 6.8 5.8 17 28 1020.6 0 15.5 21.7 30.5 79.5 69.7 238.7
16 11:20 19.3 39 6.47 5 20 24 1020.7 0 14.8 21.5 29.8 77.7 67.1 229.2
16 11:10 20.7 38 6.84 5.9 33 37 1020.6 0 15.6 21.7 30.6 79.8 70.1 240.0
16 11:00 18.8 40 6.44 4.9 19 32 1020.7 0 14.8 21.6 29.9 77.9 67.1 229.4
16 10:50 18.8 42 6.76 5.6 13 15 1020.8 0 15.5 22.1 31.0 80.9 70.8 242.4
16 10:40 19 41 6.68 5.5 22 26 1021 0 15.3 21.9 30.7 80.0 69.7 238.6
16 10:30 17.9 45 6.87 5.8 19 32 1021.1 0 15.7 22.4 31.8 82.9 72.9 249.7
16 10:20 17.8 47 7.13 6.3 17 20 1021.2 0 16.3 22.8 32.7 85.5 76.1 260.8
16 10:10 18 46 7.06 6.2 26 30 1021.2 0 16.1 22.7 32.4 84.6 75.1 257.3
16 10:00 17.5 47 7.01 6.1 24 37 1021.2 0 16.0 22.7 32.4 84.7 75.0 256.8
16 09:50 17.1 47 6.84 5.7 22 24 1021.4 0 15.7 22.6 32.0 83.5 73.3 251.0
16 09:40 16.7 48 6.82 5.6 20 24 1021.4 0 15.7 22.7 32.1 83.7 73.5 251.4
16 09:30 17.1 47 6.84 5.7 24 30 1021.3 0 15.7 22.6 32.0 83.5 73.3 250.9
16 09:20 16.8 49 7.01 6 20 32 1021.5 0 16.1 22.9 32.7 85.4 75.7 259.1
16 09:10 16.5 50 7.02 6.1 26 30 1021.4 0 16.1 23.0 32.9 85.8 76.1 260.4
16 09:00 16.6 50 7.06 6.1 24 32 1021.4 0 16.2 23.0 33.0 86.1 76.4 261.8
16 08:50 16.3 51 7.08 6.2 24 28 1021.4 0 16.2 23.2 33.2 86.6 77.0 263.6
16 08:40 16.2 51 7.03 6.1 30 33 1021.3 0 16.1 23.1 33.0 86.3 76.5 261.8
16 08:30 15.9 51 6.91 5.8 26 32 1021 0 15.9 23.0 32.7 85.4 75.3 257.6
16 08:20 15.9 51 6.91 5.8 26 28 1021.1 0 15.9 23.0 32.7 85.4 75.3 257.6
16 08:10 15.6 50 6.65 5.2 26 30 1021 0 15.4 22.7 31.9 83.1 72.4 247.5
16 08:00 15.5 50 6.61 5.1 22 30 1020.7 0 15.3 22.6 31.7 82.8 72.0 246.1
16 07:50 15.4 51 6.7 5.3 20 24 1020.7 0 15.5 22.8 32.1 83.8 73.2 250.2
16 07:40 15.3 50 6.53 4.9 22 26 1020.6 0 15.1 22.6 31.5 82.2 71.2 243.3
16 07:30 15.2 50 6.49 4.9 17 22 1020.3 0 15.0 22.5 31.4 81.9 70.8 241.8
16 07:20 14.9 51 6.5 4.9 15 17 1020.4 0 15.1 22.6 31.6 82.3 71.2 243.2
16 07:10 14.5 51 6.34 4.5 19 20 1020.4 0 14.7 22.5 31.1 81.2 69.6 237.6
16 07:00 14.5 51 6.34 4.5 22 28 1020.1 0 14.7 22.5 31.1 81.2 69.6 237.5
16 06:50 14.4 51 6.3 4.4 20 22 1020.2 0 14.7 22.4 31.0 80.9 69.2 236.2
16 06:40 14.7 50 6.3 4.4 30 37 1020.1 0 14.7 22.3 30.9 80.6 68.9 235.3
16 06:30 14.7 51 6.42 4.7 24 30 1020.2 0 14.9 22.5 31.3 81.7 70.4 240.4
16 06:20 14.8 50 6.33 4.5 28 30 1020.2 0 14.7 22.4 31.0 80.8 69.2 236.3
16 06:10 14.7 51 6.42 4.7 22 24 1020.2 0 14.9 22.5 31.3 81.7 70.4 240.4
16 06:00 14.7 53 6.67 5.2 22 33 1020.1 0 15.4 22.9 32.2 84.2 73.4 251.0
16 05:50 14.7 54 6.8 5.5 24 28 1020 0 15.7 23.1 32.7 85.5 75.0 256.5
16 05:40 14.7 55 6.92 5.8 22 26 1019.9 0 16.0 23.3 33.2 86.7 76.5 261.7
16 05:30 14.7 55 6.92 5.8 19 24 1019.7 0 16.0 23.3 33.2 86.6 76.5 261.6
16 05:20 14.7 54 6.8 5.5 20 22 1019.8 0 15.7 23.1 32.7 85.4 75.0 256.5
16 05:10 14.6 54 6.76 5.4 22 24 1019.7 0 15.6 23.0 32.6 85.1 74.6 255.1
16 04:50 14.6 53 6.63 5.1 20 22 1019.8 0 15.4 22.9 32.1 83.9 73.0 249.5
16 04:40 14.6 52 6.51 4.9 19 22 1019.7 0 15.1 22.7 31.7 82.7 71.5 244.4
16 04:30 14.6 52 6.51 4.9 20 26 1019.4 0 15.1 22.7 31.7 82.7 71.5 244.3
16 04:20 14.6 52 6.51 4.9 19 22 1019.6 0 15.1 22.7 31.7 82.7 71.5 244.3
16 04:10 14.5 51 6.34 4.5 20 22 1019.5 0 14.8 22.4 31.1 81.1 69.6 237.4
16 04:00 14.5 51 6.34 4.5 20 28 1019.5 0 14.8 22.4 31.1 81.1 69.6 237.4
16 03:50 14.5 51 6.34 4.5 19 26 1019.4 0 14.8 22.4 31.1 81.1 69.6 237.4
16 03:40 14.6 51 6.38 4.6 22 24 1019.4 0 14.8 22.5 31.2 81.4 69.9 238.8
16 03:30 14.6 52 6.51 4.9 26 32 1019.3 0 15.1 22.7 31.7 82.6 71.5 244.3
16 03:20 14.6 52 6.51 4.9 28 32 1019.4 0 15.1 22.7 31.7 82.7 71.5 244.3
16 03:10 14.5 53 6.59 5 22 24 1019.6 0 15.3 22.8 32.0 83.6 72.6 248.1
16 03:00 14.5 53 6.59 5 20 26 1019.7 0 15.3 22.8 32.0 83.6 72.6 248.1
16 02:50 14.5 53 6.59 5 20 22 1019.8 0 15.3 22.8 32.0 83.6 72.6 248.1
16 02:40 14.4 53 6.55 5 20 26 1019.7 0 15.2 22.8 31.9 83.3 72.2 246.7
16 02:30 14.3 53 6.51 4.9 20 26 1019.6 0 15.1 22.7 31.8 83.0 71.8 245.3
16 02:20 14.3 53 6.51 4.9 19 20 1019.7 0 15.1 22.7 31.8 83.0 71.8 245.3
16 02:10 14.1 54 6.55 4.9 17 20 1019.7 0 15.2 22.9 32.0 83.6 72.5 247.6
16 02:00 13.9 55 6.59 5 17 20 1019.7 0 15.3 23.0 32.3 84.2 73.2 249.9
16 01:50 13.7 56 6.63 5.1 19 20 1019.9 0 15.4 23.1 32.5 84.8 73.8 252.3
16 01:40 13.6 56 6.59 5 17 19 1019.9 0 15.3 23.0 32.4 84.5 73.4 250.9
16 01:20 13.5 57 6.67 5.2 19 20 1020.2 0 15.5 23.2 32.7 85.5 74.5 254.8

Last Refresh: 16-Jan-2021 18:28:20

Most of the information presented on this site is sourced from the Bureau of Meteorology.  Copyright in all material sourced from the Bureau of Meteorology resides with the Commonwealth of Australia.